Time;durP1;ratioP1;P1;durP2;ratioP2;P2;SDS_P1;SDS_P2;PMS_P1;PMS_P2;Temp;Humidity;BMP_temperature;BMP_pressure;BME280_temperature;BME280_humidity;BME280_pressure;Samples;Min_cycle;Max_cycle;Signal;HPM_P1;HPM_P2
2023/03/31 00:00:10;;;;;;;8.60;4.72;;;;;;;13.52;59.93;99352.06;4365143;32;20132;-83
2023/03/31 00:02:40;;;;;;;8.85;4.30;;;;;;;13.56;59.93;99350.12;4383548;32;20099;-82
2023/03/31 00:05:07;;;;;;;9.83;4.50;;;;;;;13.71;59.93;99340.63;4367504;32;20167;-82
2023/03/31 00:07:32;;;;;;;10.07;5.75;;;;;;;13.55;59.92;99340.59;4353038;32;20407;-82
2023/03/31 00:10:00;;;;;;;11.30;4.87;;;;;;;13.33;59.92;99332.97;4364728;32;20102;-82
2023/03/31 00:12:26;;;;;;;7.05;4.10;;;;;;;13.57;59.93;99340.50;4378313;32;20194;-82
2023/03/31 00:14:51;;;;;;;7.90;4.68;;;;;;;13.38;59.92;99332.75;4353385;32;20738;-82
2023/03/31 00:17:17;;;;;;;7.00;4.68;;;;;;;13.36;59.92;99339.81;4367617;32;20396;-82
2023/03/31 00:19:43;;;;;;;8.75;4.55;;;;;;;13.49;59.93;99330.44;4381606;32;20176;-84
2023/03/31 00:22:08;;;;;;;11.05;5.37;;;;;;;13.27;59.92;99337.69;4380167;32;20494;-84
2023/03/31 00:24:33;;;;;;;8.38;4.60;;;;;;;13.18;59.91;99336.34;4379702;32;20489;-84
2023/03/31 00:27:00;;;;;;;8.65;4.78;;;;;;;13.12;59.91;99339.22;4380008;32;20126;-83
2023/03/31 00:29:25;;;;;;;7.75;4.97;;;;;;;13.12;59.91;99339.22;4367734;32;20129;-84
2023/03/31 00:31:51;;;;;;;11.15;5.65;;;;;;;13.20;59.91;99335.34;4380057;32;20098;-83
2023/03/31 00:34:16;;;;;;;9.63;4.95;;;;;;;13.20;59.91;99332.72;4367540;32;20146;-84
2023/03/31 00:36:46;;;;;;;11.48;5.10;;;;;;;13.12;59.91;99328.78;4379703;32;20134;-83
2023/03/31 00:39:12;;;;;;;8.93;5.37;;;;;;;13.29;59.91;99328.84;4367663;32;20773;-82
2023/03/31 00:41:38;;;;;;;12.35;5.60;;;;;;;13.12;59.91;99327.00;4367438;32;20479;-83
2023/03/31 00:44:24;;;;;;;11.88;5.30;;;;;;;13.23;59.91;99318.66;4354793;32;20086;-83
2023/03/31 00:46:56;;;;;;;9.10;5.22;;;;;;;12.83;59.89;99319.75;4368279;32;20074;-83
2023/03/31 00:49:28;;;;;;;9.10;4.97;;;;;;;12.72;59.88;99317.63;4383052;32;20106;-81
2023/03/31 00:51:56;;;;;;;7.60;4.75;;;;;;;12.66;59.88;99323.16;4369705;32;20164;-82
2023/03/31 00:54:22;;;;;;;11.00;4.87;;;;;;;12.66;59.88;99317.94;4379616;32;20144;-82
2023/03/31 00:56:48;;;;;;;8.18;5.20;;;;;;;12.52;59.87;99326.41;4379836;32;20157;-83
2023/03/31 00:59:13;;;;;;;9.63;5.00;;;;;;;12.65;59.88;99326.69;4367316;32;20388;-82
2023/03/31 01:01:41;;;;;;;9.55;4.80;;;;;;;12.63;59.88;99322.44;4379711;32;20485;-82
2023/03/31 01:04:08;;;;;;;7.00;4.18;;;;;;;12.56;59.87;99325.38;4379253;32;20205;-82
2023/03/31 01:06:34;;;;;;;8.98;5.47;;;;;;;12.47;59.87;99323.16;4367599;32;20193;-82
2023/03/31 01:09:02;;;;;;;8.57;5.12;;;;;;;12.49;59.87;99313.50;4367194;32;20137;-83
2023/03/31 01:11:29;;;;;;;9.07;5.87;;;;;;;12.52;59.87;99310.72;4367782;32;20106;-82
2023/03/31 01:13:55;;;;;;;10.68;6.43;;;;;;;12.30;59.87;99310.03;4355250;32;20469;-83
2023/03/31 01:16:20;;;;;;;11.95;6.62;;;;;;;12.31;59.87;99306.53;4369458;32;20124;-83
2023/03/31 01:18:48;;;;;;;12.80;7.12;;;;;;;12.05;59.84;99314.69;4367343;32;20102;-81
2023/03/31 01:21:50;;;;;;;9.18;6.20;;;;;;;12.12;59.85;99316.13;4393754;32;20432;-81
2023/03/31 01:24:18;;;;;;;11.88;6.10;;;;;;;12.19;59.85;99307.94;4367360;32;20155;-82
2023/03/31 01:27:00;;;;;;;12.95;6.30;;;;;;;12.10;59.85;99316.19;4392686;32;20149;-83
2023/03/31 01:29:41;;;;;;;10.30;6.28;;;;;;;12.14;59.85;99315.13;4393548;32;20098;-82
2023/03/31 01:32:16;;;;;;;10.65;5.72;;;;;;;12.06;59.85;99311.16;4379735;32;20501;-82
2023/03/31 01:35:00;;;;;;;8.98;4.70;;;;;;;11.96;59.83;99315.94;4393513;32;20082;-82
2023/03/31 01:37:46;;;;;;;7.93;4.72;;;;;;;11.88;59.83;99324.13;4380139;32;20083;-81
2023/03/31 01:40:36;;;;;;;13.45;4.87;;;;;;;11.98;59.84;99314.13;4380388;32;20154;-82
2023/03/31 01:43:11;;;;;;;9.05;5.57;;;;;;;11.92;59.84;99317.00;4380385;32;20242;-82
2023/03/31 01:46:24;;;;;;;10.55;4.57;;;;;;;11.91;59.84;99315.31;4379324;32;20148;-82
2023/03/31 01:48:58;;;;;;;7.10;4.45;;;;;;;11.82;59.83;99313.94;4331090;33;20135;-82
2023/03/31 01:51:31;;;;;;;7.97;4.00;;;;;;;11.73;59.83;99324.75;4360550;32;20164;-83
2023/03/31 01:54:33;;;;;;;6.55;4.47;;;;;;;11.89;59.83;99320.59;4369028;32;20106;-83
2023/03/31 01:57:00;;;;;;;11.23;4.47;;;;;;;11.75;59.83;99328.13;4370181;32;20090;-82
2023/03/31 01:59:38;;;;;;;7.47;4.20;;;;;;;11.77;59.83;99321.09;4358178;32;20094;-82
2023/03/31 02:02:12;;;;;;;8.70;4.03;;;;;;;11.81;59.83;99322.66;4367358;32;20095;-82
2023/03/31 02:04:59;;;;;;;6.57;4.45;;;;;;;11.55;59.82;99325.53;4366813;32;20419;-82
2023/03/31 02:07:40;;;;;;;5.53;4.22;;;;;;;11.66;59.82;99323.31;4368251;32;20125;-83
2023/03/31 02:10:06;;;;;;;6.70;4.05;;;;;;;11.60;59.83;99319.22;4367224;32;20129;-83
2023/03/31 02:12:32;;;;;;;8.68;4.40;;;;;;;11.42;59.81;99322.63;4366948;32;20133;-82
2023/03/31 02:14:57;;;;;;;7.60;4.50;;;;;;;11.33;59.81;99326.44;4368490;32;20678;-82
2023/03/31 02:17:29;;;;;;;8.38;4.45;;;;;;;11.39;59.81;99314.94;4353969;32;21254;-82
2023/03/31 02:19:55;;;;;;;7.87;4.45;;;;;;;11.31;59.81;99312.63;4379845;32;20466;-82
2023/03/31 02:22:21;;;;;;;8.40;3.80;;;;;;;11.28;59.80;99317.97;4379310;32;20755;-83
2023/03/31 02:24:46;;;;;;;6.82;3.75;;;;;;;11.15;59.79;99310.75;4366690;32;20158;-82
2023/03/31 02:27:34;;;;;;;13.60;4.75;;;;;;;11.25;59.80;99302.47;4366265;32;20489;-83
2023/03/31 02:29:59;;;;;;;8.70;4.53;;;;;;;11.18;59.80;99311.47;4357974;32;20114;-82
2023/03/31 02:32:51;;;;;;;7.05;4.45;;;;;;;11.29;59.80;99311.00;4353931;32;24853;-82
2023/03/31 02:35:19;;;;;;;6.43;4.25;;;;;;;11.20;59.80;99299.22;4376911;32;20133;-82
2023/03/31 02:37:45;;;;;;;9.45;4.30;;;;;;;11.12;59.79;99305.63;4354002;32;20488;-82
2023/03/31 02:40:14;;;;;;;7.65;3.85;;;;;;;11.21;59.80;99293.09;4366803;32;20454;-82
2023/03/31 02:42:40;;;;;;;7.00;3.67;;;;;;;11.08;59.80;99299.69;4366957;32;20522;-82
2023/03/31 02:45:07;;;;;;;8.13;4.07;;;;;;;11.01;59.79;99301.72;4353814;32;21727;-82
2023/03/31 02:47:32;;;;;;;6.62;3.80;;;;;;;11.28;59.80;99304.09;4376814;32;20112;-82
2023/03/31 02:49:59;;;;;;;7.78;4.22;;;;;;;10.80;59.78;99304.34;4366665;32;20170;-82
2023/03/31 02:52:58;;;;;;;9.18;4.95;;;;;;;10.99;59.79;99303.53;4366460;32;20128;-82
2023/03/31 02:55:39;;;;;;;10.95;4.43;;;;;;;10.82;59.78;99297.31;4368605;32;20175;-81
2023/03/31 02:58:04;;;;;;;9.63;4.75;;;;;;;10.94;59.79;99295.09;4379440;32;20532;-82
2023/03/31 03:00:39;;;;;;;9.25;5.55;;;;;;;10.70;59.78;99302.13;4392593;32;20110;-81
2023/03/31 03:03:08;;;;;;;11.23;4.97;;;;;;;10.80;59.78;99312.16;4366754;32;20118;-82
2023/03/31 03:05:39;;;;;;;10.18;4.87;;;;;;;10.67;59.77;99310.06;4392827;32;20095;-81
2023/03/31 03:08:13;;;;;;;6.55;3.95;;;;;;;10.69;59.78;99305.63;4378765;32;20161;-82
2023/03/31 03:10:41;;;;;;;7.03;4.22;;;;;;;10.71;59.77;99301.22;4378589;32;20456;-82
2023/03/31 03:13:35;;;;;;;7.57;4.53;;;;;;;10.62;59.76;99301.56;4394453;32;20098;-82
2023/03/31 03:16:08;;;;;;;9.57;4.30;;;;;;;10.48;59.76;99298.66;4379427;32;20132;-82
2023/03/31 03:18:33;;;;;;;6.15;4.03;;;;;;;10.50;59.76;99298.59;4379219;32;20451;-82
2023/03/31 03:20:59;;;;;;;9.85;4.68;;;;;;;10.48;59.76;99296.06;4365995;32;23175;-83
2023/03/31 03:23:24;;;;;;;6.95;3.55;;;;;;;10.59;59.76;99303.44;4381559;32;20134;-82
2023/03/31 03:25:50;;;;;;;8.00;4.68;;;;;;;10.56;59.77;99307.00;4384917;32;20168;-83
2023/03/31 03:28:16;;;;;;;6.28;3.92;;;;;;;10.48;59.76;99297.81;4378619;32;20150;-83
2023/03/31 03:30:41;;;;;;;6.18;4.20;;;;;;;10.22;59.74;99302.25;4366531;32;20113;-82
2023/03/31 03:33:07;;;;;;;8.85;4.78;;;;;;;10.21;59.74;99295.38;4378916;32;23432;-82
2023/03/31 03:35:32;;;;;;;8.82;4.40;;;;;;;10.01;59.73;99298.66;4378471;32;20145;-83
2023/03/31 03:37:58;;;;;;;11.35;5.30;;;;;;;10.00;59.73;99298.72;4366019;32;20090;-83
2023/03/31 03:40:24;;;;;;;8.95;4.82;;;;;;;10.01;59.73;99292.63;4378635;32;20075;-82
2023/03/31 03:42:49;;;;;;;8.88;4.53;;;;;;;9.84;59.72;99286.28;4378708;32;20139;-83
2023/03/31 03:45:15;;;;;;;8.88;4.93;;;;;;;9.90;59.73;99289.56;4381807;32;20405;-83
2023/03/31 03:47:40;;;;;;;8.15;4.65;;;;;;;10.05;59.74;99291.59;4365539;32;20086;-83
2023/03/31 03:50:06;;;;;;;11.00;4.72;;;;;;;9.98;59.74;99303.97;4366080;32;20143;-82
2023/03/31 03:52:31;;;;;;;10.38;5.93;;;;;;;10.10;59.75;99300.06;4369180;32;20110;-82
2023/03/31 03:54:57;;;;;;;13.10;5.07;;;;;;;9.96;59.73;99302.34;4355134;32;20141;-83
2023/03/31 03:57:22;;;;;;;8.40;4.72;;;;;;;10.01;59.73;99305.63;4379481;32;20118;-84
2023/03/31 03:59:48;;;;;;;11.07;5.03;;;;;;;10.02;59.74;99302.97;4367448;32;20189;-83
2023/03/31 04:02:13;;;;;;;10.60;5.18;;;;;;;9.82;59.72;99306.28;4367723;32;20181;-82
2023/03/31 04:04:38;;;;;;;8.68;4.78;;;;;;;9.68;59.72;99294.66;4367361;32;20201;-81
2023/03/31 04:07:04;;;;;;;8.50;4.03;;;;;;;9.65;59.72;99293.03;4379993;32;20098;-81
2023/03/31 04:09:30;;;;;;;7.70;4.50;;;;;;;9.67;59.72;99287.78;4355079;32;20129;-81
2023/03/31 04:11:55;;;;;;;8.88;3.97;;;;;;;9.50;59.71;99278.84;4379650;32;20102;-82
2023/03/31 04:14:20;;;;;;;9.07;4.62;;;;;;;9.33;59.69;99275.97;4367744;32;20133;-83
2023/03/31 04:16:47;;;;;;;8.88;4.18;;;;;;;9.42;59.71;99274.81;4379674;32;20115;-82
2023/03/31 04:19:16;;;;;;;8.43;4.93;;;;;;;9.12;59.69;99276.72;4367828;32;20129;-82
2023/03/31 04:21:43;;;;;;;8.27;5.07;;;;;;;9.19;59.69;99276.44;4380439;32;20132;-82
2023/03/31 04:24:11;;;;;;;7.43;3.80;;;;;;;9.34;59.70;99282.03;4368166;32;20164;-83
2023/03/31 04:26:45;;;;;;;10.45;4.90;;;;;;;9.37;59.70;99279.31;4367675;32;20090;-83
2023/03/31 04:29:21;;;;;;;9.18;4.80;;;;;;;9.31;59.69;99280.38;4368828;32;20093;-83
2023/03/31 04:31:46;;;;;;;10.00;4.85;;;;;;;9.15;59.69;99289.59;4356508;32;20103;-83
2023/03/31 04:34:13;;;;;;;8.98;5.10;;;;;;;9.16;59.69;99288.69;4367423;32;20140;-83
2023/03/31 04:36:45;;;;;;;10.18;5.60;;;;;;;9.27;59.70;99286.59;4379948;32;20142;-83
2023/03/31 04:39:11;;;;;;;13.68;6.00;;;;;;;9.21;59.69;99285.03;4367868;32;20512;-83
2023/03/31 04:41:37;;;;;;;9.43;4.62;;;;;;;9.29;59.70;99283.94;4367564;32;20138;-83
2023/03/31 04:44:02;;;;;;;10.55;4.97;;;;;;;9.36;59.70;99277.63;4367174;32;20520;-83
2023/03/31 04:46:27;;;;;;;9.30;5.47;;;;;;;9.46;59.70;99276.37;4367156;32;20777;-82
2023/03/31 04:48:53;;;;;;;11.90;5.30;;;;;;;9.47;59.70;99276.37;4380868;32;20472;-83
2023/03/31 04:51:19;;;;;;;9.77;5.28;;;;;;;9.56;59.71;99271.72;4393103;32;20134;-82
2023/03/31 04:53:45;;;;;;;10.02;5.25;;;;;;;9.63;59.71;99268.00;4367411;32;20103;-83
2023/03/31 04:56:11;;;;;;;12.60;5.97;;;;;;;9.69;59.71;99271.22;4379962;32;20145;-82
2023/03/31 04:58:36;;;;;;;14.60;6.07;;;;;;;9.57;59.71;99269.09;4356505;32;20082;-82
2023/03/31 05:01:02;;;;;;;27.60;15.65;;;;;;;9.75;59.72;99259.78;4379461;32;20128;-82
2023/03/31 05:03:27;;;;;;;43.25;25.35;;;;;;;9.82;59.72;99262.09;4379284;32;20504;-82
2023/03/31 05:05:53;;;;;;;13.95;8.05;;;;;;;9.80;59.73;99263.91;4367145;32;20138;-83
2023/03/31 05:08:18;;;;;;;15.20;6.93;;;;;;;10.08;59.73;99255.06;4379522;32;20149;-82
2023/03/31 05:10:44;;;;;;;11.35;6.35;;;;;;;10.01;59.73;99256.22;4354416;32;20162;-82
2023/03/31 05:13:09;;;;;;;11.48;6.10;;;;;;;10.26;59.75;99250.97;4354108;32;20275;-82
2023/03/31 05:15:37;;;;;;;12.45;6.00;;;;;;;10.12;59.74;99247.09;4379555;32;20094;-83
2023/03/31 05:18:03;;;;;;;9.55;5.22;;;;;;;10.26;59.75;99243.16;4366730;32;20501;-82
2023/03/31 05:20:28;;;;;;;14.23;6.30;;;;;;;10.37;59.75;99243.56;4367187;32;20147;-82
2023/03/31 05:22:53;;;;;;;15.50;6.00;;;;;;;10.49;59.76;99243.09;4379020;32;20122;-82
2023/03/31 05:25:19;;;;;;;10.40;5.65;;;;;;;10.58;59.77;99247.09;4393170;32;20114;-85
2023/03/31 05:27:46;;;;;;;9.90;5.45;;;;;;;10.71;59.77;99236.13;4354709;32;20508;-83
2023/03/31 05:30:12;;;;;;;8.65;4.95;;;;;;;10.88;59.78;99235.41;4354289;32;20091;-83
2023/03/31 05:32:37;;;;;;;8.43;4.62;;;;;;;10.94;59.79;99229.97;4367027;32;20129;-83
2023/03/31 05:35:03;;;;;;;9.32;5.18;;;;;;;11.27;59.80;99232.06;4379122;32;20126;-83
2023/03/31 05:37:28;;;;;;;9.27;4.90;;;;;;;11.32;59.81;99230.09;4354591;32;20767;-82
2023/03/31 05:39:54;;;;;;;6.68;4.37;;;;;;;11.57;59.82;99232.47;4366935;32;20107;-82
2023/03/31 05:42:20;;;;;;;7.78;4.50;;;;;;;11.48;59.81;99232.88;4366170;32;26138;-82
2023/03/31 05:44:45;;;;;;;9.07;4.82;;;;;;;11.64;59.82;99236.53;4367223;32;20113;-84
2023/03/31 05:47:11;;;;;;;9.82;4.78;;;;;;;11.81;59.83;99228.78;4379498;32;20082;-83
2023/03/31 05:49:37;;;;;;;8.48;4.68;;;;;;;12.02;59.84;99226.13;4379144;32;20102;-82
2023/03/31 05:52:03;;;;;;;11.65;5.07;;;;;;;12.20;59.86;99228.72;4379275;32;20102;-83
2023/03/31 05:54:29;;;;;;;10.38;4.55;;;;;;;12.37;59.87;99227.94;4354424;32;20094;-83
2023/03/31 05:56:54;;;;;;;9.50;4.10;;;;;;;12.48;59.87;99230.03;4379458;32;20321;-83
2023/03/31 05:59:20;;;;;;;8.27;4.47;;;;;;;12.62;59.88;99226.78;4379157;32;20225;-83
2023/03/31 06:01:45;;;;;;;4.68;3.58;;;;;;;12.71;59.88;99223.69;4365546;32;20110;-82
2023/03/31 06:04:10;;;;;;;9.55;4.37;;;;;;;12.83;59.89;99226.56;4388107;32;20444;-83
2023/03/31 06:06:36;;;;;;;6.12;4.28;;;;;;;12.97;59.90;99219.78;4378865;32;24572;-83
2023/03/31 06:09:02;;;;;;;8.35;3.72;;;;;;;13.02;59.89;99225.66;4366413;32;20226;-82
2023/03/31 06:11:28;;;;;;;7.20;3.85;;;;;;;13.31;59.91;99211.13;4354355;32;20118;-82
2023/03/31 06:13:53;;;;;;;8.00;4.35;;;;;;;13.34;59.92;99217.03;4378538;32;20086;-82
2023/03/31 06:16:18;;;;;;;9.38;4.75;;;;;;;13.49;59.93;99212.78;4367091;32;20422;-82
2023/03/31 06:18:44;;;;;;;6.55;4.30;;;;;;;13.49;59.93;99208.41;4375269;32;20152;-83
2023/03/31 06:21:17;;;;;;;9.45;4.65;;;;;;;13.82;59.94;99194.44;4379201;32;20168;-83
2023/03/31 06:23:43;;;;;;;8.65;4.87;;;;;;;14.05;59.95;99196.66;4385931;32;20192;-84
2023/03/31 06:26:14;;;;;;;9.20;5.28;;;;;;;14.17;59.96;99191.66;4408519;32;20398;-86
2023/03/31 06:28:39;;;;;;;9.30;5.40;;;;;;;14.32;59.96;99194.28;4393373;32;20156;-87
2023/03/31 06:31:11;;;;;;;14.15;6.22;;;;;;;14.30;59.96;99192.69;4384645;32;20158;-89
2023/03/31 06:33:37;;;;;;;20.08;8.43;;;;;;;14.40;59.98;99194.69;4394670;32;20092;-86
2023/03/31 06:36:04;;;;;;;41.88;16.50;;;;;;;14.55;59.97;99192.16;4394507;32;20101;-86
2023/03/31 06:38:29;;;;;;;133.05;43.60;;;;;;;14.64;59.98;99191.63;4394532;32;20117;-87
2023/03/31 06:40:55;;;;;;;107.93;33.65;;;;;;;14.70;59.98;99183.44;4394191;32;20188;-83
2023/03/31 06:43:20;;;;;;;34.78;13.23;;;;;;;14.67;59.99;99183.63;4393948;32;20097;-83
2023/03/31 06:45:46;;;;;;;19.65;9.23;;;;;;;14.71;59.99;99193.84;4406439;32;20159;-85
2023/03/31 06:48:12;;;;;;;12.30;5.15;;;;;;;14.74;59.99;99198.03;4381484;32;20118;-88
2023/03/31 06:50:40;;;;;;;8.43;3.40;;;;;;;14.82;59.99;99200.22;4394204;32;20110;-82
2023/03/31 06:53:07;;;;;;;7.72;3.55;;;;;;;14.98;60.00;99211.50;4408127;32;20101;-82
2023/03/31 06:55:33;;;;;;;6.65;3.65;;;;;;;15.14;60.00;99211.41;4394520;32;20102;-85
2023/03/31 06:57:58;;;;;;;6.15;2.92;;;;;;;15.27;60.02;99199.28;4405519;32;20122;-86
2023/03/31 07:00:31;;;;;;;9.27;3.30;;;;;;;15.26;60.02;99197.59;4393374;32;20447;-89
2023/03/31 07:02:57;;;;;;;5.47;3.25;;;;;;;15.48;60.03;99200.63;4381062;32;20090;-90
2023/03/31 07:05:26;;;;;;;4.50;2.80;;;;;;;15.65;60.04;99191.75;4407200;32;20112;-90
2023/03/31 07:07:55;;;;;;;8.20;3.58;;;;;;;15.81;60.05;99197.72;4382015;32;20132;-88
2023/03/31 07:10:21;;;;;;;6.40;3.05;;;;;;;15.95;60.05;99189.84;4406550;32;20140;-87
2023/03/31 07:20:53;;;;;;;7.40;2.90;;;;;;;16.32;60.08;99179.59;4390697;27;20109;-89
2023/03/31 07:23:18;;;;;;;8.32;2.80;;;;;;;16.56;60.09;99174.53;4364011;32;20450;-88
2023/03/31 07:25:45;;;;;;;7.00;2.72;;;;;;;16.69;60.08;99170.19;4352691;32;20067;-88
2023/03/31 07:28:11;;;;;;;5.50;2.50;;;;;;;16.81;60.09;99168.56;4363919;32;20107;-87
2023/03/31 07:30:59;;;;;;;5.15;2.58;;;;;;;16.82;60.10;99162.34;4375340;32;20062;-91
2023/03/31 07:33:25;;;;;;;5.18;2.37;;;;;;;17.04;60.11;99162.59;4357013;32;20083;-84
2023/03/31 07:35:50;;;;;;;6.35;2.22;;;;;;;17.05;60.11;99153.75;4378254;32;20145;-90
2023/03/31 07:38:45;;;;;;;4.10;2.50;;;;;;;17.26;60.12;99143.53;4364412;32;20106;-90
2023/03/31 07:41:17;;;;;;;4.10;2.10;;;;;;;17.36;60.13;99149.88;4345110;33;20460;-87
2023/03/31 07:43:43;;;;;;;4.15;2.10;;;;;;;17.64;60.14;99137.41;4344990;33;20591;-86
2023/03/31 07:46:20;;;;;;;7.05;2.47;;;;;;;17.67;60.14;99139.81;4346968;33;20124;-84
2023/03/31 07:48:46;;;;;;;8.20;3.03;;;;;;;17.96;60.16;99137.75;4344944;33;20094;-84
2023/03/31 07:51:13;;;;;;;7.47;3.10;;;;;;;18.24;60.18;99134.00;4344271;33;20294;-85
2023/03/31 07:53:38;;;;;;;7.40;2.90;;;;;;;18.29;60.18;99137.13;4320660;33;20159;-86
2023/03/31 07:56:04;;;;;;;8.02;2.75;;;;;;;18.29;60.17;99135.31;4344342;33;20201;-87
2023/03/31 07:58:29;;;;;;;5.70;2.87;;;;;;;18.40;60.19;99137.16;4331719;33;20453;-86
2023/03/31 08:00:55;;;;;;;4.65;3.08;;;;;;;18.40;60.19;99131.87;4344392;33;20137;-85
2023/03/31 08:03:21;;;;;;;8.27;3.37;;;;;;;18.32;60.19;99135.09;4344327;33;20137;-87
2023/03/31 08:05:46;;;;;;;9.00;2.92;;;;;;;18.47;60.19;99133.13;4345085;33;20152;-85
2023/03/31 08:08:11;;;;;;;7.00;3.65;;;;;;;18.62;60.20;99124.09;4353885;33;20199;-85
2023/03/31 08:10:37;;;;;;;4.90;3.03;;;;;;;18.77;60.20;99113.38;4325842;33;20115;-85
2023/03/31 08:13:03;;;;;;;6.85;4.05;;;;;;;18.80;60.20;99107.84;4357737;32;20531;-84
2023/03/31 08:15:28;;;;;;;7.35;3.45;;;;;;;18.89;60.21;99107.97;4360571;32;20139;-86
2023/03/31 08:17:54;;;;;;;6.22;3.28;;;;;;;18.98;60.21;99103.81;4347924;32;20158;-86
2023/03/31 08:20:19;;;;;;;8.27;3.70;;;;;;;19.01;60.22;99106.22;4361314;32;20090;-87
2023/03/31 08:22:45;;;;;;;7.78;3.85;;;;;;;19.12;60.22;99098.31;4346314;33;20091;-86
2023/03/31 08:25:10;;;;;;;11.68;6.72;;;;;;;19.04;60.22;99092.78;4350712;33;20159;-89
2023/03/31 08:27:37;;;;;;;7.07;3.75;;;;;;;19.20;60.23;99095.09;4345810;33;20112;-87
2023/03/31 08:30:04;;;;;;;7.18;3.55;;;;;;;19.09;60.23;99088.00;4345295;33;20107;-86
2023/03/31 08:32:31;;;;;;;9.13;4.40;;;;;;;19.14;60.22;99083.19;4345400;33;20096;-87
2023/03/31 08:34:56;;;;;;;5.75;4.00;;;;;;;19.13;60.22;99076.25;4345350;33;20492;-85
2023/03/31 08:37:23;;;;;;;7.37;3.20;;;;;;;19.19;60.23;99072.31;4347246;33;20139;-89
2023/03/31 08:39:48;;;;;;;5.60;3.50;;;;;;;19.16;60.23;99073.34;4335331;33;20107;-84
2023/03/31 08:42:44;;;;;;;8.43;3.62;;;;;;;19.20;60.23;99066.06;4350185;33;20178;-88
2023/03/31 08:45:26;;;;;;;4.68;3.42;;;;;;;19.35;60.24;99069.28;4349009;33;20413;-86
2023/03/31 08:47:58;;;;;;;6.97;4.05;;;;;;;19.53;60.24;99054.63;4347465;33;20488;-87
2023/03/31 08:50:26;;;;;;;4.40;2.72;;;;;;;19.67;60.25;99051.78;4346887;33;20103;-85
2023/03/31 08:53:27;;;;;;;5.85;3.60;;;;;;;19.71;60.26;99042.63;4347161;33;20087;-90
2023/03/31 08:55:54;;;;;;;5.25;2.22;;;;;;;19.79;60.26;99040.19;4347407;32;20099;-89
2023/03/31 08:58:49;;;;;;;4.28;2.58;;;;;;;19.74;60.25;99036.25;4335285;33;20495;-87
2023/03/31 09:01:46;;;;;;;5.75;2.70;;;;;;;19.88;60.26;99028.91;4348435;33;20150;-85
2023/03/31 09:04:46;;;;;;;5.53;3.15;;;;;;;20.04;60.27;99031.09;4335319;33;20138;-85
2023/03/31 09:07:48;;;;;;;5.25;2.28;;;;;;;19.99;60.27;99028.00;4335429;33;20096;-84
2023/03/31 09:10:23;;;;;;;2.95;2.10;;;;;;;19.96;60.27;99011.59;4336151;33;20099;-87
2023/03/31 09:13:01;;;;;;;3.70;2.47;;;;;;;19.93;60.26;99028.53;4334945;33;20150;-86
2023/03/31 09:15:49;;;;;;;2.67;2.30;;;;;;;19.90;60.26;99020.84;4337043;33;20539;-89
2023/03/31 09:18:32;;;;;;;5.45;2.65;;;;;;;20.13;60.28;99018.97;4336663;33;20096;-86
2023/03/31 09:21:25;;;;;;;9.48;4.75;;;;;;;20.16;60.28;99011.63;4334634;33;20425;-85
2023/03/31 09:24:08;;;;;;;3.87;2.33;;;;;;;20.22;60.29;99007.63;4335328;33;20167;-86
2023/03/31 09:26:41;;;;;;;5.00;2.25;;;;;;;20.29;60.28;99003.47;4335266;33;20485;-85
2023/03/31 09:29:14;;;;;;;3.65;1.80;;;;;;;20.41;60.30;99004.31;4334794;33;20130;-86
2023/03/31 09:31:41;;;;;;;7.53;3.28;;;;;;;20.47;60.30;99001.97;4354845;32;20566;-87
2023/03/31 09:34:14;;;;;;;4.32;2.35;;;;;;;20.43;60.30;98989.16;4372221;32;20111;-91
2023/03/31 09:36:39;;;;;;;4.90;2.15;;;;;;;20.69;60.31;98979.84;4365372;32;20169;-90
2023/03/31 09:39:05;;;;;;;3.60;2.00;;;;;;;20.76;60.32;98972.19;4351372;32;20087;-88
2023/03/31 09:41:30;;;;;;;2.20;1.85;;;;;;;20.69;60.31;98969.25;4368045;32;20153;-86
2023/03/31 09:43:56;;;;;;;6.43;2.28;;;;;;;20.81;60.32;98975.28;4363011;32;20185;-87
2023/03/31 09:46:27;;;;;;;1.75;1.65;;;;;;;20.98;60.32;98961.44;4349214;32;20131;-87
2023/03/31 09:48:57;;;;;;;2.72;1.48;;;;;;;21.11;60.33;98969.16;4357688;32;147533;-86
2023/03/31 09:51:26;;;;;;;7.53;2.62;;;;;;;21.12;60.33;98955.78;4349450;32;20119;-85
2023/03/31 09:54:02;;;;;;;4.87;1.92;;;;;;;21.25;60.34;98960.84;4349581;32;20392;-86
2023/03/31 09:56:54;;;;;;;5.93;2.37;;;;;;;21.38;60.35;98953.50;4349612;32;20452;-85
2023/03/31 09:59:30;;;;;;;5.60;3.35;;;;;;;21.54;60.35;98947.69;4364738;32;20099;-86
2023/03/31 10:01:57;;;;;;;3.00;2.12;;;;;;;21.54;60.35;98945.03;4349570;32;20099;-85
2023/03/31 10:04:24;;;;;;;7.28;3.12;;;;;;;21.49;60.36;98941.09;4349392;32;20217;-86
2023/03/31 10:06:51;;;;;;;7.22;2.70;;;;;;;21.59;60.36;98926.91;4349369;32;20079;-85
2023/03/31 10:09:18;;;;;;;5.18;3.12;;;;;;;21.45;60.35;98937.91;4346384;32;20103;-85
2023/03/31 10:11:55;;;;;;;4.72;2.25;;;;;;;21.38;60.35;98937.62;4337120;32;20100;-84
2023/03/31 10:14:26;;;;;;;3.22;2.03;;;;;;;21.55;60.35;98920.22;4336857;32;20162;-86
2023/03/31 10:16:57;;;;;;;5.22;2.30;;;;;;;21.52;60.35;98924.94;4364663;32;20526;-86
2023/03/31 10:19:31;;;;;;;3.87;2.20;;;;;;;21.44;60.35;98912.41;4349123;32;20448;-87
2023/03/31 10:21:58;;;;;;;2.47;1.60;;;;;;;21.41;60.35;98908.22;4337958;32;20134;-95
2023/03/31 10:24:25;;;;;;;2.97;1.92;;;;;;;21.35;60.34;98908.78;4338336;32;20123;-93
2023/03/31 10:26:54;;;;;;;5.93;2.40;;;;;;;21.43;60.35;98903.63;4337079;32;20128;-91
2023/03/31 10:29:29;;;;;;;4.82;2.42;;;;;;;21.49;60.36;98906.69;4337434;32;20092;-90
2023/03/31 10:32:33;;;;;;;6.57;2.30;;;;;;;21.52;60.36;98901.94;4346623;32;20178;-90
2023/03/31 10:35:31;;;;;;;2.85;2.00;;;;;;;21.51;60.36;98897.63;4291445;33;20120;-90
2023/03/31 10:38:09;;;;;;;5.05;1.98;;;;;;;21.44;60.35;98902.63;4368413;32;20097;-94
2023/03/31 10:40:35;;;;;;;3.05;1.73;;;;;;;21.42;60.35;98891.34;4365068;32;20137;-88
2023/03/31 10:43:20;;;;;;;4.37;2.33;;;;;;;21.21;60.34;98893.25;4351563;32;20384;-87
2023/03/31 10:46:14;;;;;;;5.97;2.10;;;;;;;21.31;60.34;98888.00;4361521;32;20581;-89
2023/03/31 10:48:41;;;;;;;2.15;1.33;;;;;;;21.20;60.35;98888.09;4361984;32;20090;-88
2023/03/31 10:51:12;;;;;;;1.58;1.08;;;;;;;21.13;60.34;98885.16;4372066;32;20105;-87
2023/03/31 10:53:57;;;;;;;4.15;1.52;;;;;;;21.10;60.33;98883.63;4385473;32;20125;-87
2023/03/31 10:56:22;;;;;;;4.62;1.70;;;;;;;21.22;60.34;98878.19;4368090;32;20099;-87
2023/03/31 10:59:50;;;;;;;4.18;1.83;;;;;;;21.33;60.35;98878.13;4378653;32;20149;-94
2023/03/31 11:02:45;;;;;;;3.83;2.33;;;;;;;21.54;60.36;98873.53;4358530;32;20121;-93
2023/03/31 11:05:29;;;;;;;4.95;1.48;;;;;;;21.64;60.37;98862.91;4378471;32;20158;-94
2023/03/31 11:08:12;;;;;;;3.95;1.65;;;;;;;21.76;60.37;98869.72;4353221;32;20119;-92
2023/03/31 11:10:57;;;;;;;6.32;1.75;;;;;;;21.95;60.39;98861.75;4378054;32;20117;-93
2023/03/31 11:13:28;;;;;;;2.85;1.50;;;;;;;22.33;60.41;98849.41;4365792;32;20113;-93
2023/03/31 11:16:17;;;;;;;3.35;1.95;;;;;;;22.44;60.41;98861.62;4365173;32;20452;-93
2023/03/31 11:19:13;;;;;;;2.83;1.85;;;;;;;22.52;60.41;98854.62;4337597;32;20184;-94
2023/03/31 11:21:48;;;;;;;2.58;1.48;;;;;;;22.70;60.42;98846.72;4370238;32;20808;-94
2023/03/31 11:24:35;;;;;;;3.53;1.95;;;;;;;22.55;60.41;98842.91;4365243;32;20150;-92
2023/03/31 11:27:24;;;;;;;3.45;1.77;;;;;;;22.60;60.42;98830.03;4376532;32;20509;-92
2023/03/31 11:30:23;;;;;;;3.23;2.17;;;;;;;22.74;60.43;98829.53;4363761;32;20102;-89
2023/03/31 11:33:18;;;;;;;3.75;1.85;;;;;;;22.81;60.43;98812.06;4351947;32;20160;-87
2023/03/31 11:36:00;;;;;;;4.75;1.87;;;;;;;22.89;60.43;98798.88;4366489;32;20098;-87
2023/03/31 11:38:54;;;;;;;4.53;2.20;;;;;;;23.03;60.45;98784.25;4362884;32;20127;-88
2023/03/31 11:41:26;;;;;;;4.15;1.92;;;;;;;23.24;60.45;98776.00;4362656;32;20464;-87
2023/03/31 11:43:54;;;;;;;2.97;2.17;;;;;;;23.16;60.44;98778.56;4363765;32;20102;-87
2023/03/31 11:46:42;;;;;;;3.55;2.10;;;;;;;23.14;60.45;98762.78;4363208;32;20219;-88
2023/03/31 11:49:23;;;;;;;33.47;5.87;;;;;;;23.11;60.45;98770.22;4363251;32;20106;-93
2023/03/31 11:52:10;;;;;;;21.58;5.30;;;;;;;22.95;60.43;98757.66;4363267;32;20110;-86
2023/03/31 11:55:24;;;;;;;3.60;2.37;;;;;;;22.83;60.43;98751.72;4376790;32;20091;-86
2023/03/31 11:57:52;;;;;;;6.78;2.08;;;;;;;22.74;60.43;98743.81;4364234;32;20086;-86
2023/03/31 12:00:22;;;;;;;11.02;2.90;;;;;;;22.72;60.42;98737.81;4362810;32;20144;-86